createdAt,value
2022-08-16T00:04:11.655Z,62.46154
2022-08-16T00:09:12.857Z,62.68979
2022-08-16T00:14:15.159Z,62.68979
2022-08-16T00:19:16.351Z,62.68979
2022-08-16T00:24:32.203Z,62.91892
2022-08-16T00:29:35.482Z,63.37984
2022-08-16T00:34:44.607Z,63.61165
2022-08-16T00:39:58.234Z,63.61165
2022-08-16T00:44:59.631Z,64.07797
2022-08-16T00:50:01.292Z,64.07797
2022-08-16T00:55:02.214Z,63.61165
2022-08-16T01:00:03.130Z,63.61165
2022-08-16T01:05:11.078Z,63.37984
2022-08-16T01:10:16.425Z,63.37984
2022-08-16T01:15:17.954Z,63.37984
2022-08-16T01:20:24.702Z,63.37984
2022-08-16T01:26:33.524Z,63.84436
2022-08-16T01:31:37.612Z,63.61165
2022-08-16T01:36:43.858Z,63.84436
2022-08-16T01:41:46.393Z,64.07797
2022-08-16T01:46:47.329Z,63.61165
2022-08-16T01:56:49.177Z,63.61165
2022-08-16T02:01:52.559Z,64.07797
2022-08-16T02:07:00.406Z,63.84436
2022-08-16T02:12:50.216Z,64.07797
2022-08-16T02:17:53.210Z,63.84436
2022-08-16T02:22:55.313Z,63.84436
2022-08-16T02:27:56.392Z,63.61165
2022-08-16T02:32:57.307Z,63.61165
2022-08-16T02:38:06.060Z,63.84436
2022-08-16T02:43:09.712Z,64.07797
2022-08-16T02:48:29.708Z,63.84436
2022-08-16T02:53:31.961Z,63.84436
2022-08-16T02:58:32.902Z,64.07797
2022-08-16T03:04:29.926Z,64.3125
2022-08-16T03:09:51.136Z,64.3125
2022-08-16T03:14:52.056Z,64.3125
2022-08-16T03:20:02.370Z,64.3125
2022-08-16T03:25:03.961Z,64.3125
2022-08-16T03:30:15.896Z,64.3125
2022-08-16T03:35:18.684Z,64.3125
2022-08-16T03:40:23.281Z,64.54795
2022-08-16T03:45:34.107Z,64.54795
2022-08-16T03:50:35.607Z,64.54795
2022-08-16T03:55:45.612Z,64.78431
2022-08-16T04:00:47.186Z,64.78431
2022-08-16T04:06:00.006Z,64.78431
2022-08-16T04:11:03.365Z,64.78431
2022-08-16T04:16:04.309Z,64.78431
2022-08-16T04:21:07.558Z,65.02161
2022-08-16T04:26:16.938Z,65.25984
2022-08-16T04:31:18.608Z,65.25984
2022-08-16T04:36:20.728Z,65.25984
2022-08-16T04:41:32.917Z,65.25984
2022-08-16T04:47:00.890Z,65.02161
2022-08-16T04:52:04.428Z,65.02161
2022-08-16T04:57:33.938Z,64.78431
2022-08-16T05:02:42.335Z,64.78431
2022-08-16T05:07:58.658Z,64.78431
2022-08-16T05:13:01.147Z,64.78431
2022-08-16T05:18:03.898Z,64.78431
2022-08-16T05:23:04.819Z,64.54795
2022-08-16T05:28:07.298Z,64.07797
2022-08-16T05:33:16.493Z,63.84436
2022-08-16T05:38:32.448Z,64.07797
2022-08-16T05:43:43.573Z,64.07797
2022-08-16T05:48:55.218Z,64.3125
2022-08-16T05:54:01.408Z,64.3125
2022-08-16T05:59:02.815Z,64.07797
2022-08-16T06:04:13.507Z,63.84436
2022-08-16T06:09:43.394Z,63.61165
2022-08-16T06:14:45.322Z,64.07797
2022-08-16T06:19:46.692Z,63.84436
2022-08-16T06:24:53.294Z,63.84436
2022-08-16T06:29:56.622Z,63.61165
2022-08-16T06:35:02.304Z,64.3125
2022-08-16T06:40:04.221Z,63.84436
2022-08-16T06:45:05.242Z,63.37984
2022-08-16T06:50:06.994Z,60.22642
2022-08-16T06:55:07.965Z,60.22642
2022-08-16T07:00:22.002Z,60.44612
2022-08-16T07:05:27.201Z,60.88805
2022-08-16T07:10:42.671Z,60.66667
2022-08-16T07:15:50.365Z,61.11027
2022-08-16T07:20:52.174Z,60.66667
2022-08-16T07:25:53.209Z,60.22642
2022-08-16T07:30:55.358Z,60.00753
2022-08-16T07:35:56.972Z,60.00753
2022-08-16T07:41:00.674Z,60.66667
2022-08-16T07:46:02.230Z,61.11027
2022-08-16T07:51:08.921Z,61.11027
2022-08-16T07:56:10.202Z,60.00753
2022-08-16T08:01:12.655Z,58.92537
2022-08-16T08:06:13.933Z,60.66667
2022-08-16T08:11:18.270Z,60.44612
2022-08-16T08:16:19.659Z,59.35581
2022-08-16T08:21:26.200Z,58.49814
2022-08-16T08:26:28.705Z,59.14019
2022-08-16T08:31:30.993Z,59.78947
2022-08-16T08:36:33.526Z,59.78947
2022-08-16T08:41:35.148Z,59.35581
2022-08-16T08:46:36.414Z,58.92537
2022-08-16T08:51:37.377Z,57.86322
2022-08-16T08:56:45.376Z,58.28571
2022-08-16T09:01:57.363Z,58.92537
2022-08-16T09:07:01.419Z,60.00753
2022-08-16T09:12:06.296Z,61.11027
2022-08-16T09:17:12.045Z,60.22642
2022-08-16T09:22:22.711Z,59.14019
2022-08-16T09:27:25.227Z,58.92537
2022-08-16T09:32:30.171Z,59.78947
2022-08-16T09:37:36.375Z,60.22642
2022-08-16T09:42:43.542Z,62.23417
2022-08-16T09:47:58.252Z,61.11027
2022-08-16T09:52:59.649Z,58.92537
2022-08-16T09:58:00.572Z,59.57223
2022-08-16T10:03:01.601Z,58.28571
2022-08-16T10:08:25.512Z,60.44612
2022-08-16T10:13:27.585Z,59.57223
2022-08-16T10:19:00.429Z,59.78947
2022-08-16T10:24:03.428Z,59.78947
2022-08-16T10:29:04.829Z,62.00766
2022-08-16T10:34:06.043Z,61.55725
2022-08-16T10:39:42.071Z,61.78203
2022-08-16T10:44:53.457Z,60.88805
2022-08-16T10:49:54.993Z,62.91892
2022-08-16T10:54:59.057Z,62.91892
2022-08-16T11:00:01.228Z,61.55725
2022-08-16T11:05:07.083Z,63.61165
2022-08-16T11:11:04.591Z,63.61165
2022-08-16T11:16:26.868Z,63.14894
2022-08-16T11:21:28.716Z,64.3125
2022-08-16T11:26:30.799Z,65.9802
2022-08-16T11:31:32.827Z,63.14894
2022-08-16T11:36:33.948Z,65.9802
2022-08-16T11:41:35.011Z,64.78431
2022-08-16T11:46:45.120Z,65.49901
2022-08-16T11:51:47.679Z,65.49901
2022-08-16T11:56:53.054Z,66.46521
2022-08-16T12:01:59.389Z,66.95409
2022-08-16T12:07:01.300Z,67.44689
2022-08-16T12:12:02.993Z,64.3125
2022-08-16T12:17:04.242Z,64.3125
2022-08-16T12:22:05.847Z,64.3125
2022-08-16T12:27:20.754Z,65.49901
2022-08-16T12:32:35.909Z,65.49901
2022-08-16T12:37:39.519Z,62.68979
2022-08-16T12:42:53.029Z,65.73913
2022-08-16T12:48:09.971Z,64.78431
2022-08-16T12:53:31.962Z,67.69478
2022-08-16T12:58:49.551Z,65.25984
2022-08-16T13:03:59.148Z,65.25984
2022-08-16T13:09:09.646Z,64.54795
2022-08-16T13:14:30.933Z,62.46154
2022-08-16T13:19:56.378Z,61.11027
2022-08-16T13:25:07.396Z,62.46154
2022-08-16T13:30:11.338Z,61.78203
2022-08-16T13:35:37.703Z,58.49814
2022-08-16T13:40:44.352Z,58.49814
2022-08-16T13:45:45.534Z,61.55725
2022-08-16T13:50:52.301Z,65.9802
2022-08-16T13:55:58.790Z,65.02161
2022-08-16T14:01:00.285Z,64.78431
2022-08-16T14:06:02.808Z,67.2
2022-08-16T14:11:03.734Z,67.44689
2022-08-16T14:16:04.965Z,64.54795
2022-08-16T14:21:24.683Z,65.02161
2022-08-16T14:26:25.699Z,68.69636
2022-08-16T14:31:26.684Z,64.78431
2022-08-16T14:36:30.005Z,68.19355
2022-08-16T14:41:31.557Z,65.49901
2022-08-16T14:46:32.600Z,64.3125
2022-08-16T14:51:36.083Z,62.91892
2022-08-16T14:56:43.129Z,63.61165
2022-08-16T15:01:58.062Z,65.49901
2022-08-16T15:07:00.966Z,67.2
2022-08-16T15:12:01.989Z,67.69478
2022-08-16T15:17:02.970Z,66.46521
2022-08-16T15:22:04.878Z,64.54795
2022-08-16T15:27:05.802Z,65.02161
2022-08-16T15:32:11.941Z,65.73913
2022-08-16T15:37:42.298Z,66.46521
2022-08-16T15:42:44.025Z,67.69478
2022-08-16T15:47:55.839Z,67.94366
2022-08-16T15:52:57.716Z,68.94929
2022-08-16T15:57:59.341Z,68.19355
2022-08-16T16:03:00.292Z,70.22951
2022-08-16T16:08:11.243Z,67.94366
2022-08-16T16:13:13.945Z,66.46521
2022-08-16T16:18:14.906Z,68.69636
2022-08-16T16:23:15.883Z,67.69478
2022-08-16T16:29:06.058Z,67.94366
2022-08-16T16:34:10.068Z,69.20325
2022-08-16T16:39:12.101Z,70.22951
2022-08-16T16:44:18.191Z,68.19355
2022-08-16T16:49:33.951Z,66.70916
2022-08-16T16:54:34.959Z,67.94366
2022-08-16T16:59:35.844Z,66.22222
2022-08-16T17:04:36.787Z,66.46521
2022-08-16T17:09:40.190Z,66.95409
2022-08-16T17:14:42.654Z,65.9802
2022-08-16T17:19:43.858Z,66.46521
2022-08-16T17:24:50.776Z,65.9802
2022-08-16T17:29:53.834Z,66.95409
2022-08-16T17:34:54.852Z,66.70916
2022-08-16T17:40:06.123Z,66.95409
2022-08-16T17:45:08.986Z,65.73913
2022-08-16T17:50:11.041Z,64.3125
2022-08-16T17:55:13.253Z,63.84436
2022-08-16T18:00:18.321Z,63.61165
2022-08-16T18:05:21.280Z,63.61165
2022-08-16T18:10:32.550Z,63.61165
2022-08-16T18:15:34.691Z,63.84436
2022-08-16T18:20:35.750Z,63.84436
2022-08-16T18:25:36.775Z,63.84436
2022-08-16T18:30:42.674Z,63.61165
2022-08-16T18:35:48.631Z,63.84436
2022-08-16T18:40:54.563Z,63.84436
2022-08-16T18:46:00.558Z,63.84436
2022-08-16T18:51:10.485Z,64.3125
2022-08-16T18:56:20.713Z,64.54795
2022-08-16T19:01:26.723Z,65.02161
2022-08-16T19:06:32.681Z,65.25984
2022-08-16T19:11:38.585Z,65.25984
2022-08-16T19:16:44.519Z,65.49901
2022-08-16T19:21:50.413Z,65.73913
2022-08-16T19:26:56.375Z,65.49901
2022-08-16T19:32:03.133Z,65.73913
2022-08-16T19:37:09.169Z,65.9802
2022-08-16T19:42:10.141Z,66.46521
2022-08-16T19:47:11.073Z,66.46521
2022-08-16T19:52:11.970Z,66.46521
2022-08-16T19:57:12.891Z,66.22222
2022-08-16T20:02:25.608Z,65.9802
2022-08-16T20:07:37.470Z,65.9802
2022-08-16T20:12:38.421Z,66.22222
2022-08-16T20:17:39.489Z,65.9802
2022-08-16T20:22:53.488Z,66.22222
2022-08-16T20:27:54.988Z,66.22222
2022-08-16T20:32:56.025Z,66.22222
2022-08-16T20:37:56.922Z,66.22222
2022-08-16T20:42:58.145Z,66.22222
2022-08-16T20:47:59.312Z,66.22222
2022-08-16T20:53:00.255Z,66.46521
2022-08-16T20:58:01.185Z,66.46521
2022-08-16T21:03:02.136Z,66.46521
2022-08-16T21:08:06.948Z,66.46521
2022-08-16T21:13:52.269Z,66.22222
2022-08-16T21:19:01.109Z,66.46521
2022-08-16T21:24:02.035Z,66.46521
2022-08-16T21:29:02.969Z,66.46521
2022-08-16T21:34:07.628Z,66.46521
2022-08-16T21:39:08.545Z,66.46521
2022-08-16T21:44:09.494Z,66.46521
2022-08-16T21:49:10.551Z,66.46521
2022-08-16T21:54:11.488Z,66.46521
2022-08-16T21:59:12.422Z,66.46521
2022-08-16T22:04:36.824Z,66.22222
2022-08-16T22:09:39.212Z,66.46521
2022-08-16T22:14:40.160Z,66.70916
2022-08-16T22:19:41.111Z,67.2
2022-08-16T22:24:42.065Z,67.2
2022-08-16T22:29:43.286Z,67.2
2022-08-16T22:34:44.219Z,67.2
2022-08-16T22:39:45.291Z,67.44689
2022-08-16T22:44:46.627Z,67.44689
2022-08-16T22:49:47.904Z,67.44689
2022-08-16T22:54:49.357Z,67.69478
2022-08-16T22:59:52.661Z,67.94366
2022-08-16T23:04:54.674Z,67.69478
2022-08-16T23:09:55.577Z,67.69478
2022-08-16T23:14:56.593Z,67.69478
2022-08-16T23:19:58.105Z,67.94366
2022-08-16T23:24:59.030Z,67.94366
2022-08-16T23:29:59.967Z,67.94366
2022-08-16T23:35:00.882Z,67.94366
2022-08-16T23:40:02.184Z,67.94366
2022-08-16T23:45:03.228Z,67.94366
2022-08-16T23:50:04.401Z,67.69478
2022-08-16T23:55:05.459Z,67.94366
